Time;durP1;ratioP1;P1;durP2;ratioP2;P2;SDS_P1;SDS_P2;PMS_P1;PMS_P2;Temp;Humidity;BMP_temperature;BMP_pressure;BME280_temperature;BME280_humidity;BME280_pressure;Samples;Min_cycle;Max_cycle;Signal;HPM_P1;HPM_P2
2022/06/21 00:01:17;;;;;;;5.27;3.60;;;10.80;9.30;;;;;;5085866;28;20196;-88
2022/06/21 00:03:45;;;;;;;8.37;3.30;;;10.80;1.00;;;;;;5095946;28;20647;-88
2022/06/21 00:06:16;;;;;;;5.53;3.30;;;10.80;1.00;;;;;;5086529;28;20204;-88
2022/06/21 00:08:43;;;;;;;7.23;3.40;;;10.80;1.00;;;;;;5093075;28;20197;-88
2022/06/21 00:11:22;;;;;;;8.43;3.63;;;10.80;1.00;;;;;;5096216;28;20210;-89
2022/06/21 00:13:49;;;;;;;9.30;3.40;;;10.80;1.00;;;;;;5096713;28;19949;-86
2022/06/21 00:16:16;;;;;;;7.30;3.77;;;10.80;1.00;;;;;;5096521;28;20596;-88
2022/06/21 00:18:45;;;;;;;4.70;3.20;;;10.80;99.90;;;;;;5097231;28;20203;-87
2022/06/21 00:21:15;;;;;;;;;;;10.90;99.90;;;;;;5096706;28;20236;-90
2022/06/21 00:23:42;;;;;;;7.17;3.37;;;10.90;99.90;;;;;;5096119;28;20182;-86
2022/06/21 00:26:12;;;;;;;5.27;3.50;;;10.90;99.90;;;;;;5082182;28;20198;-88
2022/06/21 00:28:39;;;;;;;6.57;3.50;;;10.90;99.90;;;;;;5095870;28;20195;-88
2022/06/21 00:31:11;;;;;;;5.47;2.80;;;11.00;99.90;;;;;;5096978;28;20222;-88
2022/06/21 00:33:38;;;;;;;3.60;2.90;;;11.00;99.90;;;;;;5096085;28;20188;-87
2022/06/21 00:36:23;;;;;;;4.67;3.30;;;11.00;99.90;;;;;;5096311;28;20239;-89
2022/06/21 00:38:51;;;;;;;5.80;2.87;;;10.90;21.20;;;;;;5097811;28;20218;-89
2022/06/21 00:41:20;;;;;;;5.70;2.83;;;10.90;1.00;;;;;;5096447;28;20231;-90
2022/06/21 00:43:52;;;;;;;6.80;3.37;;;10.90;1.00;;;;;;5096475;28;20763;-86
2022/06/21 00:46:31;;;;;;;4.23;2.70;;;10.80;1.00;;;;;;5096785;28;20254;-88
2022/06/21 00:49:00;;;;;;;5.67;2.80;;;10.80;1.00;;;;;;5096563;28;20200;-91
2022/06/21 00:51:35;;;;;;;4.43;2.63;;;10.70;1.00;;;;;;5095903;28;20227;-90
2022/06/21 00:54:12;;;;;;;6.10;3.07;;;10.60;1.00;;;;;;5096287;28;20239;-88
2022/06/21 00:56:46;;;;;;;3.47;3.00;;;10.60;1.00;;;;;;5089930;28;20186;-89
2022/06/21 00:59:21;;;;;;;6.43;2.80;;;10.50;1.00;;;;;;5074533;28;20194;-87
2022/06/21 01:01:49;;;;;;;5.70;2.57;;;10.50;1.00;;;;;;5082767;28;20179;-88
2022/06/21 01:04:20;;;;;;;5.63;2.83;;;10.50;1.00;;;;;;5094108;28;20210;-88
2022/06/21 01:06:52;;;;;;;5.20;3.00;;;10.50;1.00;;;;;;5082396;28;20541;-87
2022/06/21 01:09:25;;;;;;;3.20;2.90;;;10.50;1.00;;;;;;5096162;28;20198;-88
2022/06/21 01:11:56;;;;;;;3.43;2.63;;;10.40;1.00;;;;;;5095926;28;20185;-89
2022/06/21 01:14:25;;;;;;;5.67;2.67;;;10.40;1.00;;;;;;5095224;28;20193;-88
2022/06/21 01:16:52;;;;;;;4.27;2.67;;;10.40;1.00;;;;;;5095344;28;20192;-87
2022/06/21 01:19:27;;;;;;;4.37;3.00;;;10.40;1.00;;;;;;5096028;28;20283;-87
2022/06/21 01:22:01;;;;;;;3.30;2.60;;;10.40;1.00;;;;;;5095100;28;20637;-86
2022/06/21 01:24:36;;;;;;;5.37;2.60;;;10.30;1.00;;;;;;5084615;28;20599;-90
2022/06/21 01:27:05;;;;;;;7.03;2.87;;;10.40;1.00;;;;;;5089806;28;20192;-88
2022/06/21 01:29:35;;;;;;;7.40;2.90;;;10.40;1.00;;;;;;5086034;28;20650;-88
2022/06/21 01:32:04;;;;;;;4.33;3.40;;;10.40;1.90;;;;;;5082647;28;20236;-90
2022/06/21 01:34:32;;;;;;;5.50;2.77;;;10.40;77.40;;;;;;5095098;28;20294;-88
2022/06/21 01:37:07;;;;;;;3.97;2.83;;;10.40;99.90;;;;;;5096139;28;20205;-88
2022/06/21 01:39:41;;;;;;;7.70;2.83;;;10.50;99.90;;;;;;5096130;28;20218;-87
2022/06/21 01:42:12;;;;;;;4.93;3.50;;;10.50;99.90;;;;;;5094001;28;20191;-88
2022/06/21 01:44:43;;;;;;;3.20;2.80;;;10.50;99.90;;;;;;5084409;28;20195;-90
2022/06/21 01:47:14;;;;;;;4.10;3.00;;;10.50;99.90;;;;;;5095212;28;20188;-88
2022/06/21 01:49:43;;;;;;;;;;;10.50;99.90;;;;;;5094984;28;20222;-90
2022/06/21 01:52:11;;;;;;;;;;;10.50;99.90;;;;;;5096367;28;19920;-88
2022/06/21 01:54:43;;;;;;;6.07;3.13;;;10.60;99.90;;;;;;5096015;28;19920;-88
2022/06/21 01:57:14;;;;;;;4.73;3.03;;;10.60;99.90;;;;;;5096495;28;20241;-90
2022/06/21 01:59:44;;;;;;;3.23;2.60;;;10.60;99.90;;;;;;5097002;28;20245;-89
2022/06/21 02:02:12;;;;;;;;;;;10.60;99.90;;;;;;5095893;28;20180;-90
2022/06/21 02:04:45;;;;;;;6.40;3.37;;;10.70;99.90;;;;;;5081433;28;20087;-89
2022/06/21 02:07:17;;;;;;;5.10;2.80;;;10.70;99.90;;;;;;5096253;28;20183;-88
2022/06/21 02:09:46;;;;;;;;;;;10.70;99.90;;;;;;5095953;28;20018;-88
2022/06/21 02:12:15;;;;;;;;;;;10.70;99.90;;;;;;5097461;28;19924;-88
2022/06/21 02:14:44;;;;;;;;;;;10.70;99.90;;;;;;5091773;28;19920;-88
2022/06/21 02:17:19;;;;;;;5.40;4.10;;;10.70;99.90;;;;;;5086381;28;20480;-90
2022/06/21 02:19:49;;;;;;;3.83;3.40;;;10.70;99.90;;;;;;5096432;28;20192;-88
2022/06/21 02:22:19;;;;;;;4.83;3.10;;;10.70;99.90;;;;;;5095166;28;20192;-89
2022/06/21 02:24:47;;;;;;;6.23;3.20;;;10.70;99.90;;;;;;5095184;28;20202;-90
2022/06/21 02:27:18;;;;;;;5.83;3.13;;;10.80;99.90;;;;;;5096842;28;20197;-89
2022/06/21 02:29:47;;;;;;;;;;;10.80;99.90;;;;;;5093089;28;20551;-89
2022/06/21 02:32:17;;;;;;;;;;;10.80;99.90;;;;;;5096502;28;20319;-89
2022/06/21 02:34:45;;;;;;;;;;;10.90;99.90;;;;;;5095448;28;19927;-88
2022/06/21 02:37:14;;;;;;;;;;;10.90;1.00;;;;;;5091854;28;20389;-88
2022/06/21 02:39:41;;;;;;;;;;;10.90;99.90;;;;;;5089181;28;19933;-88
2022/06/21 02:42:12;;;;;;;;;;;10.90;1.00;;;;;;5089881;28;19928;-90
2022/06/21 02:44:43;;;;;;;;;;;11.00;1.00;;;;;;5086657;28;19920;-90
2022/06/21 02:47:12;;;;;;;;;;;11.00;1.00;;;;;;5097447;28;20398;-88
2022/06/21 02:49:43;;;;;;;7.70;4.03;;;11.10;1.00;;;;;;5094638;28;20319;-87
2022/06/21 02:52:14;;;;;;;6.87;3.83;;;11.10;1.00;;;;;;5096335;28;20600;-87
2022/06/21 02:54:45;;;;;;;5.87;3.97;;;11.10;1.00;;;;;;5095992;28;20235;-89
2022/06/21 02:57:17;;;;;;;6.57;3.73;;;11.10;1.00;;;;;;5096572;28;20238;-88
2022/06/21 02:59:48;;;;;;;10.20;4.07;;;11.20;1.00;;;;;;5086241;28;20190;-88
2022/06/21 03:02:16;;;;;;;;;;;11.20;1.00;;;;;;5095001;28;20304;-88
2022/06/21 03:04:47;;;;;;;;;;;11.20;1.00;;;;;;5096130;28;19928;-88
2022/06/21 03:07:16;;;;;;;;;;;11.30;1.00;;;;;;5096759;28;19924;-89
2022/06/21 03:09:43;;;;;;;;;;;11.30;1.00;;;;;;5096935;28;19924;-88
2022/06/21 03:12:10;;;;;;;;;;;11.30;1.00;;;;;;5082240;28;20420;-88
2022/06/21 03:14:37;;;;;;;;;;;11.40;1.00;;;;;;5093229;28;19990;-88
2022/06/21 03:17:08;;;;;;;;;;;11.40;1.00;;;;;;5075860;28;19920;-88
2022/06/21 03:19:36;;;;;;;;;;;11.40;1.00;;;;;;5097127;28;19920;-88
2022/06/21 03:22:04;;;;;;;;;;;11.50;1.00;;;;;;5086388;28;19927;-88
2022/06/21 03:24:32;;;;;;;;;;;11.50;1.00;;;;;;5090270;28;19920;-87
2022/06/21 03:27:01;;;;;;;;;;;11.50;1.00;;;;;;5087799;28;19920;-89
2022/06/21 03:29:29;;;;;;;;;;;11.50;99.90;;;;;;5102643;28;19947;-88
2022/06/21 03:31:56;;;;;;;;;;;11.50;99.90;;;;;;5099146;28;19920;-89
2022/06/21 03:34:25;;;;;;;;;;;11.50;1.00;;;;;;5085871;28;19920;-89
2022/06/21 03:36:52;;;;;;;;;;;11.50;1.00;;;;;;5089004;28;19927;-90
2022/06/21 03:39:20;;;;;;;;;;;11.60;1.00;;;;;;5101121;28;19927;-88
2022/06/21 03:41:48;;;;;;;;;;;11.60;1.00;;;;;;5088658;28;19985;-92
2022/06/21 03:44:18;;;;;;;;;;;11.60;1.00;;;;;;5092522;28;20006;-89
2022/06/21 03:46:48;;;;;;;;;;;11.60;1.00;;;;;;5078428;28;19920;-90
2022/06/21 03:49:18;;;;;;;;;;;11.60;1.00;;;;;;5088720;28;19968;-89
2022/06/21 03:51:47;;;;;;;;;;;11.70;1.00;;;;;;5077296;28;20251;-88
2022/06/21 03:54:18;;;;;;;;;;;11.70;1.00;;;;;;5085573;28;19928;-89
2022/06/21 03:56:48;;;;;;;;;;;11.70;1.00;;;;;;5093750;28;20360;-90
2022/06/21 03:59:19;;;;;;;;;;;11.70;1.00;;;;;;5090569;28;19924;-89
2022/06/21 04:01:48;;;;;;;;;;;11.80;1.00;;;;;;5083911;28;19960;-87
2022/06/21 04:04:18;;;;;;;;;;;11.80;1.00;;;;;;5083401;28;19927;-88
2022/06/21 04:06:48;;;;;;;;;;;11.90;1.00;;;;;;5092081;28;19920;-87
2022/06/21 04:09:21;;;;;;;;;;;11.90;1.00;;;;;;5093842;28;19977;-88
2022/06/21 04:11:53;;;;;;;;;;;11.90;1.00;;;;;;5093679;28;19928;-88
2022/06/21 04:14:24;;;;;;;;;;;11.90;1.00;;;;;;5095311;28;19943;-89
2022/06/21 04:16:54;;;;;;;;;;;12.00;1.00;;;;;;5099829;28;20357;-87
2022/06/21 04:19:24;;;;;;;;;;;12.00;1.00;;;;;;5097957;28;19927;-88
2022/06/21 04:21:54;;;;;;;;;;;12.00;1.00;;;;;;5084441;28;20369;-88
2022/06/21 04:24:25;;;;;;;;;;;12.10;1.00;;;;;;5099806;28;19927;-87
2022/06/21 04:26:56;;;;;;;;;;;12.10;1.00;;;;;;5098489;28;19927;-88
2022/06/21 04:29:27;;;;;;;;;;;12.10;1.00;;;;;;5098693;28;19943;-88
2022/06/21 04:31:57;;;;;;;;;;;12.10;1.00;;;;;;5098001;28;19920;-87
2022/06/21 04:34:25;;;;;;;;;;;12.20;1.00;;;;;;5098536;28;19970;-88
2022/06/21 04:36:54;;;;;;;;;;;12.20;1.00;;;;;;5093061;28;19920;-89
2022/06/21 04:39:25;;;;;;;;;;;12.20;1.00;;;;;;5087227;28;19920;-88
2022/06/21 04:41:53;;;;;;;;;;;12.20;1.00;;;;;;5082932;28;19920;-87
2022/06/21 04:44:22;;;;;;;;;;;12.30;1.00;;;;;;5078433;28;19927;-89
2022/06/21 04:46:53;;;;;;;;;;;12.30;1.00;;;;;;5090614;28;19921;-88
2022/06/21 04:49:23;;;;;;;;;;;12.40;1.00;;;;;;5097826;28;19920;-89
2022/06/21 04:51:52;;;;;;;;;;;12.40;1.00;;;;;;5078360;28;19921;-88
2022/06/21 04:54:24;;;;;;;;;;;12.40;1.00;;;;;;5089305;28;19928;-88
2022/06/21 04:56:59;;;;;;;49.53;46.23;;;12.50;1.00;;;;;;5091231;28;19974;-89
2022/06/21 04:59:30;;;;;;;73.07;66.97;;;12.50;1.00;;;;;;5090449;28;20199;-88
2022/06/21 05:01:58;;;;;;;8.33;6.20;;;12.40;99.90;;;;;;5081468;28;20189;-89
2022/06/21 05:04:27;;;;;;;55.50;51.20;;;12.50;99.90;;;;;;5087932;28;20226;-88
2022/06/21 05:06:56;;;;;;;70.53;65.10;;;12.40;99.90;;;;;;5085061;28;20200;-87
2022/06/21 05:09:27;;;;;;;61.60;57.10;;;12.40;99.90;;;;;;5093959;28;20283;-89
2022/06/21 05:11:59;;;;;;;73.33;68.07;;;12.40;1.00;;;;;;5094258;28;20214;-88
2022/06/21 05:14:30;;;;;;;149.13;137.70;;;12.50;1.00;;;;;;5094469;28;20188;-87
2022/06/21 05:16:57;;;;;;;12.87;9.67;;;12.50;1.00;;;;;;5094906;28;20579;-89
2022/06/21 05:19:29;;;;;;;141.53;130.30;;;12.50;1.00;;;;;;5094463;28;20201;-91
2022/06/21 05:22:00;;;;;;;11.43;6.27;;;12.60;1.00;;;;;;5094794;28;20605;-89
2022/06/21 05:24:28;;;;;;;41.83;38.90;;;12.60;1.00;;;;;;5095406;28;20193;-91
2022/06/21 05:27:09;;;;;;;116.63;106.93;;;12.70;1.00;;;;;;5080835;28;20198;-89
2022/06/21 05:29:43;;;;;;;155.43;141.77;;;12.70;99.90;;;;;;5092265;28;20189;-88
2022/06/21 05:32:17;;;;;;;207.67;189.50;;;12.80;99.90;;;;;;5094809;28;20209;-89
2022/06/21 05:34:48;;;;;;;25.90;14.93;;;12.80;99.90;;;;;;5094800;28;20705;-89
2022/06/21 05:37:25;;;;;;;195.40;177.80;;;12.70;99.90;;;;;;5094994;28;20197;-89
2022/06/21 05:39:53;;;;;;;204.73;185.53;;;12.80;99.90;;;;;;5095137;28;20608;-90
2022/06/21 05:42:24;;;;;;;190.17;169.40;;;12.80;99.90;;;;;;5095120;28;20277;-89
2022/06/21 05:44:52;;;;;;;;;;;12.90;99.90;;;;;;5094666;28;20195;-88
2022/06/21 05:47:22;;;;;;;;;;;12.90;1.00;;;;;;5095222;28;20006;-89
2022/06/21 05:49:49;;;;;;;;;;;12.90;1.00;;;;;;5081934;28;19924;-89
2022/06/21 05:52:20;;;;;;;;;;;13.00;1.00;;;;;;5093044;28;19930;-90
2022/06/21 05:54:48;;;;;;;;;;;13.00;1.00;;;;;;5093942;28;19924;-89
2022/06/21 05:57:17;;;;;;;;;;;13.10;1.00;;;;;;5093902;28;19960;-89
2022/06/21 05:59:46;;;;;;;;;;;13.20;1.00;;;;;;5091753;28;20407;-89
2022/06/21 06:02:15;;;;;;;;;;;13.30;1.00;;;;;;5094276;28;19955;-89
2022/06/21 06:04:45;;;;;;;;;;;13.40;1.00;;;;;;5089373;28;19955;-89
2022/06/21 06:07:15;;;;;;;;;;;13.40;1.00;;;;;;5086438;28;19927;-89
2022/06/21 06:09:43;;;;;;;;;;;13.50;99.90;;;;;;5092715;28;20265;-89
2022/06/21 06:12:14;;;;;;;;;;;13.40;99.90;;;;;;5094477;28;19927;-89
2022/06/21 06:14:43;;;;;;;;;;;13.40;99.90;;;;;;5094802;28;20007;-91
2022/06/21 06:17:17;;;;;;;;;;;13.30;93.20;;;;;;5093911;28;19931;-89
2022/06/21 06:19:46;;;;;;;;;;;13.30;82.00;;;;;;5094594;28;20297;-89
2022/06/21 06:22:18;;;;;;;;;;;13.30;96.30;;;;;;5094472;28;19919;-90
2022/06/21 06:24:49;;;;;;;;;;;13.40;99.90;;;;;;5094225;28;19920;-90
2022/06/21 06:27:27;;;;;;;;;;;13.40;99.90;;;;;;5094331;28;19920;-90
2022/06/21 06:29:55;;;;;;;;;;;13.40;3.80;;;;;;5094749;28;19967;-90
2022/06/21 06:32:27;;;;;;;;;;;13.50;1.00;;;;;;5093641;28;19924;-89
2022/06/21 06:34:54;;;;;;;;;;;13.50;1.00;;;;;;5093700;28;20315;-89
2022/06/21 06:37:25;;;;;;;;;;;13.60;40.50;;;;;;5094055;28;19942;-92
2022/06/21 06:39:52;;;;;;;;;;;13.60;8.60;;;;;;5093371;28;19982;-89
2022/06/21 06:42:22;;;;;;;57.77;53.77;;;13.80;99.90;;;;;;5093680;28;20383;-90
2022/06/21 06:44:51;;;;;;;53.70;49.90;;;13.90;51.20;;;;;;5093379;28;20700;-89
2022/06/21 06:47:25;;;;;;;5.10;2.20;;;13.90;1.00;;;;;;5092644;28;20556;-89
2022/06/21 06:50:00;;;;;;;71.73;66.80;;;13.90;99.90;;;;;;5093788;28;20207;-89
2022/06/21 06:52:33;;;;;;;2.37;1.90;;;13.90;99.90;;;;;;5079144;28;20740;-89
2022/06/21 06:55:05;;;;;;;34.43;32.23;;;13.90;1.00;;;;;;5093668;28;20237;-88
2022/06/21 06:57:38;;;;;;;75.23;69.97;;;13.90;99.90;;;;;;5080958;28;20242;-89
2022/06/21 07:00:14;;;;;;;32.60;30.63;;;13.90;37.40;;;;;;5093063;28;20194;-89
2022/06/21 07:02:46;;;;;;;77.63;70.90;;;13.90;99.90;;;;;;5093427;28;20188;-89
2022/06/21 07:05:20;;;;;;;83.50;78.23;;;13.90;99.90;;;;;;5085545;28;20658;-90
2022/06/21 07:07:52;;;;;;;11.87;11.03;;;14.10;1.00;;;;;;5092496;28;20611;-89
2022/06/21 07:10:22;;;;;;;2.97;1.67;;;14.30;11.50;;;;;;5092996;28;20276;-89
2022/06/21 07:12:51;;;;;;;2.57;2.03;;;14.50;1.00;;;;;;5092842;28;20225;-89
2022/06/21 07:15:21;;;;;;;1.70;1.30;;;14.90;57.50;;;;;;5092387;28;20192;-88
2022/06/21 07:17:52;;;;;;;4.70;2.70;;;15.30;1.00;;;;;;5092821;28;20193;-90
2022/06/21 07:20:24;;;;;;;3.27;2.63;;;15.50;1.00;;;;;;5092834;28;20622;-88
2022/06/21 07:22:55;;;;;;;7.10;3.23;;;15.70;1.00;;;;;;5092203;28;20255;-88
2022/06/21 07:25:28;;;;;;;5.30;3.25;;;15.90;99.90;;;;;;5092879;28;20255;-90
2022/06/21 07:28:00;;;;;;;138.27;60.72;;;16.40;1.00;;;;;;5092346;28;20214;-87
2022/06/21 07:30:38;;;;;;;11.13;10.10;;;16.60;1.00;;;;;;5092594;28;20282;-88
2022/06/21 07:33:12;;;;;;;7.38;6.53;;;16.70;99.90;;;;;;5092274;28;20699;-88
2022/06/21 07:35:45;;;;;;;9.60;4.60;;;16.70;1.00;;;;;;5092763;28;20184;-90
2022/06/21 07:38:18;;;;;;;1.50;1.40;;;16.90;1.00;;;;;;5079143;28;19961;-88
2022/06/21 07:40:51;;;;;;;3.67;1.90;;;17.10;1.00;;;;;;5093282;28;20202;-87
2022/06/21 07:43:25;;;;;;;5.32;2.42;;;17.20;22.60;;;;;;5093064;28;20201;-88
2022/06/21 07:45:56;;;;;;;5.30;3.05;;;17.30;1.00;;;;;;5093750;28;20191;-87
2022/06/21 07:48:28;;;;;;;4.15;2.88;;;17.20;1.00;;;;;;5092444;28;20210;-89
2022/06/21 07:51:00;;;;;;;13.48;6.53;;;17.00;99.90;;;;;;5092653;28;20223;-89
2022/06/21 07:53:33;;;;;;;20.73;9.00;;;16.80;1.00;;;;;;5092114;28;20213;-88
2022/06/21 07:56:07;;;;;;;54.40;19.95;;;16.60;1.00;;;;;;5093032;28;20237;-87
2022/06/21 07:58:39;;;;;;;95.57;34.55;;;16.30;1.00;;;;;;5092523;28;20194;-87
2022/06/21 08:06:54;;;;;;;5.47;3.05;;;16.70;1.00;;;;;;5080769;28;20194;-88
2022/06/21 08:09:28;;;;;;;5.20;3.85;;;17.50;99.90;;;;;;5091874;28;20200;-88
2022/06/21 08:12:00;;;;;;;;;;;18.50;1.00;;;;;;5095864;28;20048;-87
2022/06/21 08:14:29;;;;;;;8.57;4.60;;;19.10;1.00;;;;;;5095720;28;20189;-87
2022/06/21 08:17:00;;;;;;;;;;;19.40;99.90;;;;;;5096107;28;20088;-88
2022/06/21 08:19:29;;;;;;;;;;;19.30;1.00;;;;;;5095661;28;19920;-87
2022/06/21 08:22:02;;;;;;;10.13;4.50;;;19.30;99.90;;;;;;5095081;28;20181;-87
2022/06/21 08:24:36;;;;;;;8.45;6.40;;;19.20;1.00;;;;;;5095359;28;20652;-87
2022/06/21 08:27:13;;;;;;;5.32;3.78;;;19.10;1.00;;;;;;5082221;28;20195;-87
2022/06/21 08:29:44;;;;;;;4.70;3.30;;;19.00;99.90;;;;;;5095320;28;20195;-86
2022/06/21 08:32:18;;;;;;;4.93;3.58;;;19.00;99.90;;;;;;5095250;28;20212;-86
2022/06/21 08:34:48;;;;;;;6.60;4.75;;;18.90;99.90;;;;;;5095316;28;20214;-87
2022/06/21 08:37:24;;;;;;;11.85;8.77;;;19.10;1.00;;;;;;5095037;28;20274;-88
2022/06/21 08:39:56;;;;;;;;;;;19.30;1.00;;;;;;5095631;28;19924;-88
2022/06/21 08:42:39;;;;;;;;;;;19.40;99.90;;;;;;5095832;28;19927;-88
2022/06/21 08:45:43;;;;;;;;;;;19.40;7.40;;;;;;5095665;28;19920;-87
2022/06/21 08:48:28;;;;;;;;;;;19.40;1.00;;;;;;5095292;28;20344;-87
2022/06/21 08:51:13;;;;;;;;;;;19.50;1.00;;;;;;5083050;28;19924;-88
2022/06/21 08:53:49;;;;;;;;;;;20.00;99.90;;;;;;5095181;28;20296;-87
2022/06/21 08:56:18;;;;;;;;;;;20.30;1.00;;;;;;5095516;28;19943;-89
2022/06/21 08:58:51;;;;;;;;;;;20.40;99.90;;;;;;5094904;28;19920;-89
2022/06/21 09:01:21;;;;;;;;;;;20.30;1.00;;;;;;5095235;28;19955;-86
2022/06/21 09:04:01;;;;;;;7.05;4.40;;;20.10;1.00;;;;;;5094897;28;20049;-87
2022/06/21 09:06:43;;;;;;;7.55;5.50;;;19.70;1.00;;;;;;5088606;28;20199;-88
2022/06/21 09:09:24;;;;;;;5.93;3.00;;;19.50;1.00;;;;;;5094733;28;20195;-89
2022/06/21 09:12:02;;;;;;;6.47;3.10;;;19.40;1.00;;;;;;5081928;28;20616;-87
2022/06/21 09:14:38;;;;;;;;;;;19.30;1.00;;;;;;5095015;28;20529;-87
2022/06/21 09:17:08;;;;;;;;;;;19.40;99.90;;;;;;5094828;28;19920;-88
2022/06/21 09:19:47;;;;;;;;;;;19.40;99.90;;;;;;5095192;28;19920;-87
2022/06/21 09:22:16;;;;;;;;;;;19.50;57.30;;;;;;5094170;28;20390;-87
2022/06/21 09:24:47;;;;;;;;;;;19.40;99.90;;;;;;5094590;28;19982;-87
2022/06/21 09:27:16;;;;;;;;;;;19.50;99.90;;;;;;5094215;28;19927;-88
2022/06/21 09:29:51;;;;;;;;;;;19.50;99.90;;;;;;5094487;28;20522;-87
2022/06/21 09:32:23;;;;;;;;;;;19.70;99.90;;;;;;5094296;28;20262;-87
2022/06/21 09:34:55;;;;;;;;;;;19.80;99.90;;;;;;5093604;28;19931;-87
2022/06/21 09:37:26;;;;;;;;;;;19.80;99.90;;;;;;5093414;28;19980;-88
2022/06/21 09:39:57;;;;;;;;;;;19.80;99.90;;;;;;5094262;28;19924;-88
2022/06/21 09:42:29;;;;;;;;;;;20.00;99.90;;;;;;5094365;28;19920;-88
2022/06/21 09:45:02;;;;;;;;;;;20.20;99.90;;;;;;5094314;28;19920;-86
2022/06/21 09:47:32;;;;;;;;;;;20.60;99.90;;;;;;5094344;28;19919;-87
2022/06/21 09:50:03;;;;;;;;;;;21.20;1.00;;;;;;5094166;28;19927;-86
2022/06/21 09:52:34;;;;;;;;;;;21.60;1.00;;;;;;5094415;28;20470;-87
2022/06/21 09:55:08;;;;;;;;;;;22.00;1.00;;;;;;5080596;28;19924;-88
2022/06/21 09:57:40;;;;;;;;;;;22.00;99.90;;;;;;5083341;28;19920;-87
2022/06/21 10:00:09;;;;;;;;;;;21.80;99.90;;;;;;5093967;28;19919;-86
2022/06/21 10:02:40;;;;;;;;;;;21.80;99.90;;;;;;5093986;28;19926;-88
2022/06/21 10:05:15;;;;;;;6.53;3.28;;;21.80;99.90;;;;;;5085192;28;20376;-87
2022/06/21 10:08:05;;;;;;;4.55;1.80;;;22.10;99.90;;;;;;5089305;28;20199;-89
2022/06/21 10:10:45;;;;;;;2.85;1.50;;;22.70;1.20;;;;;;5093027;28;20195;-88
2022/06/21 10:13:36;;;;;;;6.47;1.67;;;22.90;1.00;;;;;;5092894;28;20584;-87
2022/06/21 10:16:19;;;;;;;2.67;1.85;;;23.00;1.00;;;;;;5092348;28;20210;-86
2022/06/21 10:19:00;;;;;;;9.88;5.38;;;23.00;1.00;;;;;;5092980;28;20187;-87
2022/06/21 10:21:44;;;;;;;5.57;1.63;;;23.30;1.00;;;;;;5093075;28;20187;-87
2022/06/21 10:24:35;;;;;;;2.05;1.25;;;23.40;1.00;;;;;;5093578;28;20664;-88
2022/06/21 10:27:41;;;;;;;5.68;1.35;;;23.10;1.00;;;;;;5079785;28;20203;-87
2022/06/21 10:30:26;;;;;;;;;;;23.10;1.00;;;;;;5082588;28;20198;-87
2022/06/21 10:32:59;;;;;;;;;;;23.20;1.00;;;;;;5092682;28;19928;-86
2022/06/21 10:35:41;;;;;;;;;;;23.40;1.00;;;;;;5092654;28;20288;-87
2022/06/21 10:38:42;;;;;;;5.25;1.85;;;23.60;1.00;;;;;;5093115;28;20615;-87
2022/06/21 10:41:23;;;;;;;7.50;1.65;;;23.80;1.00;;;;;;5090470;28;20194;-87
2022/06/21 10:44:07;;;;;;;2.55;1.45;;;23.80;99.90;;;;;;5092496;28;20198;-87
2022/06/21 10:46:37;;;;;;;;;;;23.80;99.90;;;;;;5093214;28;19920;-87
2022/06/21 10:49:14;;;;;;;;;;;23.70;99.90;;;;;;5093393;28;20265;-88
2022/06/21 10:51:53;;;;;;;;;;;23.70;99.90;;;;;;5093100;28;20380;-88
2022/06/21 10:54:27;;;;;;;;;;;23.70;99.90;;;;;;5080035;28;20372;-87
2022/06/21 10:57:12;;;;;;;;;;;23.80;99.90;;;;;;5092672;28;19943;-88
2022/06/21 11:02:41;;;;;;;;;;;24.10;99.90;;;;;;5092823;28;20443;-87
2022/06/21 11:05:14;;;;;;;;;;;24.10;99.90;;;;;;5084088;28;19928;-87
2022/06/21 11:07:44;;;;;;;;;;;23.90;99.90;;;;;;5088604;28;20296;-87
2022/06/21 11:10:13;;;;;;;;;;;23.90;99.90;;;;;;5092834;28;19930;-87
2022/06/21 11:13:04;;;;;;;;;;;23.90;99.90;;;;;;5093069;28;19920;-87
2022/06/21 11:15:38;;;;;;;;;;;24.10;99.90;;;;;;5093224;28;20006;-88
2022/06/21 11:18:17;;;;;;;;;;;24.20;99.90;;;;;;5092466;28;19924;-88
2022/06/21 11:20:56;;;;;;;;;;;24.10;99.90;;;;;;5092882;28;20288;-87
2022/06/21 11:23:29;;;;;;;;;;;23.90;99.90;;;;;;5092636;28;19955;-87
2022/06/21 11:25:58;;;;;;;;;;;23.90;99.90;;;;;;5092622;28;19919;-89
2022/06/21 11:28:36;;;;;;;;;;;24.00;99.90;;;;;;5092251;28;19920;-89
2022/06/21 11:31:05;;;;;;;;;;;24.00;99.90;;;;;;5092433;28;20388;-87
2022/06/21 11:33:33;;;;;;;;;;;23.90;99.90;;;;;;5092477;28;19920;-87
2022/06/21 11:36:05;;;;;;;;;;;23.80;99.90;;;;;;5092239;28;20326;-87
2022/06/21 11:38:40;;;;;;;;;;;23.80;99.90;;;;;;5092531;28;19985;-87
2022/06/21 11:41:09;;;;;;;;;;;23.80;99.90;;;;;;5092657;28;19943;-86
2022/06/21 11:43:47;;;;;;;;;;;23.80;99.90;;;;;;5092121;28;19927;-87
2022/06/21 11:46:18;;;;;;;;;;;23.80;99.90;;;;;;5095085;28;19920;-87
2022/06/21 11:48:57;;;;;;;;;;;23.90;99.90;;;;;;5096151;28;20291;-89
2022/06/21 11:51:32;;;;;;;;;;;23.90;99.90;;;;;;5096535;28;19924;-87
2022/06/21 11:54:01;;;;;;;;;;;23.80;99.90;;;;;;5096270;28;19920;-87
2022/06/21 11:56:37;;;;;;;;;;;23.60;99.90;;;;;;5095997;28;19965;-88
2022/06/21 11:59:07;;;;;;;;;;;23.70;99.90;;;;;;5095612;28;19927;-87
2022/06/21 12:01:37;;;;;;;;;;;23.90;99.90;;;;;;5096463;28;19920;-88
2022/06/21 12:04:11;;;;;;;;;;;24.10;99.90;;;;;;5095879;28;19924;-87
2022/06/21 12:06:43;;;;;;;;;;;24.20;99.90;;;;;;5083209;28;19924;-88
2022/06/21 12:09:14;;;;;;;;;;;24.10;99.90;;;;;;5096260;28;20258;-89
2022/06/21 12:11:46;;;;;;;;;;;24.10;99.90;;;;;;5083035;28;19931;-88
2022/06/21 12:14:19;;;;;;;;;;;24.00;99.90;;;;;;5096051;28;20368;-87
2022/06/21 12:16:49;;;;;;;;;;;23.90;99.90;;;;;;5096014;28;19920;-87
2022/06/21 12:19:18;;;;;;;;;;;23.80;99.90;;;;;;5096355;28;19919;-88
2022/06/21 12:21:49;;;;;;;;;;;23.80;99.90;;;;;;5095724;28;19920;-88
2022/06/21 12:24:17;;;;;;;;;;;23.90;99.90;;;;;;5096337;28;19943;-89
2022/06/21 12:26:45;;;;;;;;;;;24.00;99.90;;;;;;5095842;28;19926;-88
2022/06/21 12:29:14;;;;;;;;;;;24.20;99.90;;;;;;5095565;28;19923;-88
2022/06/21 12:31:47;;;;;;;;;;;24.40;99.90;;;;;;5095720;28;19931;-87
2022/06/21 12:34:17;;;;;;;;;;;24.50;99.90;;;;;;5095649;28;20280;-88
2022/06/21 12:36:48;;;;;;;;;;;24.60;99.90;;;;;;5095605;28;19928;-87
2022/06/21 12:39:17;;;;;;;;;;;24.70;99.90;;;;;;5095618;28;19928;-88
2022/06/21 12:41:53;;;;;;;;;;;24.90;99.90;;;;;;5095517;28;19926;-85
2022/06/21 12:44:27;;;;;;;;;;;24.90;99.90;;;;;;5095185;28;19927;-86
2022/06/21 12:47:00;;;;;;;;;;;24.80;99.90;;;;;;5095323;28;19920;-85
2022/06/21 12:49:45;;;;;;;;;;;24.90;99.90;;;;;;5095383;28;19926;-86
2022/06/21 12:52:18;;;;;;;;;;;25.00;99.90;;;;;;5094934;28;20380;-86
2022/06/21 12:54:56;;;;;;;;;;;25.00;99.90;;;;;;5088799;28;19930;-85
2022/06/21 12:57:37;;;;;;;;;;;24.90;99.90;;;;;;5079003;28;19921;-85
2022/06/21 13:00:07;;;;;;;;;;;24.80;99.90;;;;;;5076936;28;19920;-86
2022/06/21 13:02:42;;;;;;;;;;;24.70;99.90;;;;;;5074440;28;20365;-86
2022/06/21 13:05:24;;;;;;;;;;;24.60;99.90;;;;;;5082606;28;19924;-85
2022/06/21 13:08:08;;;;;;;;;;;24.60;99.90;;;;;;5077472;28;20365;-85
2022/06/21 13:10:39;;;;;;;;;;;24.60;99.90;;;;;;5085463;28;20284;-86
2022/06/21 13:13:16;;;;;;;;;;;24.50;99.90;;;;;;5089911;28;19924;-86
2022/06/21 13:15:51;;;;;;;;;;;24.60;99.90;;;;;;5074409;28;19921;-86
2022/06/21 13:18:26;;;;;;;;;;;24.60;99.90;;;;;;5074755;28;19927;-85
2022/06/21 13:21:02;;;;;;;;;;;24.60;99.90;;;;;;5083600;28;19927;-86
2022/06/21 13:23:35;;;;;;;;;;;24.60;99.90;;;;;;5074493;28;19921;-86
2022/06/21 13:26:10;;;;;;;;;;;24.50;99.90;;;;;;5086636;28;19920;-87
2022/06/21 13:28:47;;;;;;;;;;;24.50;99.90;;;;;;5091772;28;19920;-87
2022/06/21 13:31:16;;;;;;;;;;;24.40;99.90;;;;;;5085311;28;19973;-86
2022/06/21 13:33:58;;;;;;;;;;;24.30;99.90;;;;;;5088211;28;19919;-86
2022/06/21 13:36:28;;;;;;;;;;;24.30;99.90;;;;;;5088766;28;19927;-86
2022/06/21 13:38:57;;;;;;;;;;;24.40;99.90;;;;;;5085679;28;20327;-87
2022/06/21 13:44:17;;;;;;;;;;;24.50;99.90;;;;;;5079098;28;19994;-88
2022/06/21 13:46:48;;;;;;;;;;;24.70;99.90;;;;;;5078784;28;20373;-86
2022/06/21 13:49:18;;;;;;;;;;;24.70;99.90;;;;;;5086214;28;19927;-87
2022/06/21 13:51:47;;;;;;;;;;;24.80;99.90;;;;;;5073752;28;19920;-87
2022/06/21 13:54:18;;;;;;;;;;;24.80;99.90;;;;;;5073432;28;20411;-87
2022/06/21 13:56:51;;;;;;;;;;;24.70;99.90;;;;;;5084971;28;20296;-86
2022/06/21 13:59:22;;;;;;;;;;;24.60;99.90;;;;;;5091570;28;19920;-84
2022/06/21 14:01:52;;;;;;;;;;;24.40;99.90;;;;;;5086047;28;19920;-87
2022/06/21 14:04:22;;;;;;;;;;;24.30;99.90;;;;;;5078905;28;20011;-87
2022/06/21 14:06:56;;;;;;;;;;;24.20;99.90;;;;;;5082057;28;19923;-87
2022/06/21 14:09:26;;;;;;;;;;;24.20;99.90;;;;;;5082109;28;19920;-87
2022/06/21 14:11:57;;;;;;;;;;;24.20;99.90;;;;;;5076009;28;20422;-87
2022/06/21 14:14:29;;;;;;;;;;;24.20;99.90;;;;;;5086805;28;20266;-87
2022/06/21 14:16:59;;;;;;;;;;;24.30;99.90;;;;;;5085824;28;20408;-87
2022/06/21 14:19:30;;;;;;;;;;;24.30;99.90;;;;;;5084286;28;19920;-86
2022/06/21 14:22:01;;;;;;;;;;;24.30;99.90;;;;;;5093099;28;19920;-86